createdAt,value
2018-01-31T01:52:20.375Z,980.78
2018-01-31T01:52:21.228Z,979.39
2018-01-31T01:53:19.815Z,979.39
2018-01-31T01:54:19.792Z,979.32
2018-01-31T01:55:19.786Z,979.27
2018-01-31T01:56:19.766Z,979.23
2018-01-31T01:57:19.753Z,979.21
2018-01-31T01:58:19.740Z,979.20
2018-01-31T01:59:19.730Z,979.21
2018-01-31T02:00:19.721Z,979.14
2018-01-31T02:01:19.709Z,979.15
2018-01-31T02:02:19.688Z,979.11
2018-01-31T02:03:19.676Z,979.09
2018-01-31T02:04:19.667Z,979.09
2018-01-31T02:05:19.650Z,979.08
2018-01-31T02:06:19.637Z,979.09
2018-01-31T02:07:19.628Z,979.11
2018-01-31T02:08:19.617Z,979.05
2018-01-31T02:09:19.603Z,979.04
2018-01-31T02:10:19.585Z,979.01
2018-01-31T02:11:19.579Z,979.04
2018-01-31T02:12:19.565Z,979.00
2018-01-31T02:13:19.546Z,979.00
2018-01-31T02:14:19.538Z,978.92
2018-01-31T02:15:19.522Z,978.89
2018-01-31T02:16:19.505Z,978.91
2018-01-31T02:17:19.498Z,978.88
2018-01-31T02:18:19.480Z,978.87
2018-01-31T02:19:19.466Z,978.86
2018-01-31T02:20:19.453Z,978.86
2018-01-31T02:21:19.441Z,978.84
2018-01-31T02:22:19.429Z,978.82
2018-01-31T02:23:19.415Z,978.80
2018-01-31T02:24:19.409Z,978.82
2018-01-31T02:25:19.389Z,978.81
2018-01-31T02:26:19.381Z,978.78
2018-01-31T02:27:19.361Z,978.76
2018-01-31T02:28:19.352Z,978.79
2018-01-31T02:29:19.334Z,978.76
2018-01-31T02:30:19.327Z,978.75
2018-01-31T02:31:19.310Z,978.69
2018-01-31T02:32:19.294Z,978.68
2018-01-31T02:33:19.286Z,978.66
2018-01-31T02:34:19.280Z,978.68
2018-01-31T02:35:19.254Z,978.57
2018-01-31T02:36:19.241Z,978.58
2018-01-31T02:37:19.233Z,978.56
2018-01-31T02:38:19.215Z,978.57
2018-01-31T02:39:19.206Z,978.55
2018-01-31T02:40:19.192Z,978.57
2018-01-31T02:41:19.173Z,978.49
2018-01-31T02:42:19.168Z,978.54
2018-01-31T02:43:19.152Z,978.51
2018-01-31T02:44:19.132Z,978.51
2018-01-31T02:45:19.121Z,978.47
2018-01-31T02:46:19.107Z,978.47
2018-01-31T02:47:19.094Z,978.45
2018-01-31T02:48:19.079Z,978.44
2018-01-31T02:49:19.065Z,978.44
2018-01-31T02:50:19.051Z,978.42
2018-01-31T02:51:19.041Z,978.41
2018-01-31T02:52:19.024Z,978.43
2018-01-31T02:53:19.017Z,978.40
2018-01-31T02:54:18.997Z,978.42
2018-01-31T02:55:18.986Z,978.39
2018-01-31T02:56:18.970Z,978.38
2018-01-31T02:57:18.962Z,978.43
2018-01-31T02:58:18.949Z,978.38
2018-01-31T02:59:18.932Z,978.37
2018-01-31T03:00:18.923Z,978.33
2018-01-31T03:01:18.902Z,978.32
2018-01-31T03:02:18.893Z,978.29
2018-01-31T03:03:18.872Z,978.33
2018-01-31T03:04:18.858Z,978.26
2018-01-31T03:05:18.846Z,978.26
2018-01-31T03:06:18.832Z,978.27
2018-01-31T03:07:18.817Z,978.26
2018-01-31T03:08:18.805Z,978.23
2018-01-31T03:09:18.788Z,978.23
2018-01-31T03:10:18.779Z,978.22
2018-01-31T03:11:18.763Z,978.21
2018-01-31T03:12:18.748Z,978.20
2018-01-31T03:13:18.733Z,978.19
2018-01-31T03:14:18.723Z,978.22
2018-01-31T03:15:18.714Z,978.19
2018-01-31T03:16:18.693Z,978.19
2018-01-31T03:17:18.684Z,978.19
2018-01-31T03:18:18.664Z,978.22
2018-01-31T03:19:18.656Z,978.21
2018-01-31T03:20:18.639Z,978.18
2018-01-31T03:21:18.626Z,978.19
2018-01-31T03:22:18.609Z,978.17
2018-01-31T03:23:18.598Z,978.16
2018-01-31T03:24:18.580Z,978.14
2018-01-31T03:25:18.568Z,978.10
2018-01-31T03:26:18.566Z,978.10
2018-01-31T03:27:18.541Z,978.11
2018-01-31T03:28:18.526Z,978.09
2018-01-31T03:29:18.513Z,978.07
2018-01-31T03:30:18.498Z,978.06
2018-01-31T03:31:18.488Z,978.03
2018-01-31T03:32:18.468Z,978.04
2018-01-31T03:33:18.453Z,978.08
2018-01-31T03:34:18.443Z,978.01
2018-01-31T03:35:18.425Z,978.06
2018-01-31T03:36:18.416Z,978.04
2018-01-31T03:37:18.398Z,978.05
2018-01-31T03:38:18.381Z,978.00
2018-01-31T03:39:18.369Z,978.02
2018-01-31T03:40:18.360Z,978.07
2018-01-31T03:41:18.339Z,977.98
2018-01-31T03:42:18.325Z,977.99
2018-01-31T03:43:18.317Z,978.03
2018-01-31T03:44:18.304Z,978.00
2018-01-31T03:45:18.283Z,977.98
2018-01-31T03:46:18.272Z,977.99
2018-01-31T03:47:18.261Z,977.97
2018-01-31T03:48:18.240Z,978.02
2018-01-31T03:49:18.250Z,977.98
2018-01-31T03:50:18.217Z,977.99
2018-01-31T03:51:18.198Z,977.92
2018-01-31T03:52:18.180Z,977.92
2018-01-31T03:53:18.174Z,977.97
2018-01-31T03:54:18.154Z,977.92
2018-01-31T03:55:18.139Z,977.88
2018-01-31T03:56:18.129Z,977.91
2018-01-31T03:57:18.111Z,977.92
2018-01-31T03:58:18.102Z,977.93
2018-01-31T03:59:18.083Z,977.89
2018-01-31T04:00:18.067Z,977.86
2018-01-31T04:01:18.059Z,977.90
2018-01-31T04:02:18.042Z,977.91
2018-01-31T04:03:18.027Z,977.91
2018-01-31T04:04:18.018Z,977.90
2018-01-31T04:05:18.004Z,977.93
2018-01-31T04:06:17.987Z,977.90
2018-01-31T04:07:17.967Z,977.85
2018-01-31T04:08:17.952Z,977.89
2018-01-31T04:09:17.938Z,977.87
2018-01-31T04:10:17.923Z,977.82
2018-01-31T04:11:17.910Z,977.81
2018-01-31T04:12:17.894Z,977.77
2018-01-31T04:13:17.888Z,977.83
2018-01-31T04:14:17.869Z,977.82
2018-01-31T04:15:17.858Z,977.79
2018-01-31T04:16:17.838Z,977.72
2018-01-31T04:17:17.823Z,977.70
2018-01-31T04:18:17.811Z,977.69
2018-01-31T04:19:17.796Z,977.67
2018-01-31T04:20:17.784Z,977.72
2018-01-31T04:21:17.765Z,977.69
2018-01-31T04:22:17.758Z,977.69
2018-01-31T04:23:17.742Z,977.63
2018-01-31T04:24:17.729Z,977.67
2018-01-31T04:25:17.709Z,977.67
2018-01-31T04:26:17.694Z,977.65
2018-01-31T04:27:17.682Z,977.61
2018-01-31T04:28:17.664Z,977.62
2018-01-31T04:29:17.651Z,977.61
2018-01-31T04:30:17.636Z,977.63
2018-01-31T04:31:17.631Z,977.65
2018-01-31T04:32:17.608Z,977.61
2018-01-31T04:33:17.598Z,977.65
2018-01-31T04:34:17.580Z,977.62
2018-01-31T04:35:17.563Z,977.64
2018-01-31T04:36:17.549Z,977.64
2018-01-31T04:37:17.540Z,977.59
2018-01-31T04:38:17.522Z,977.64
2018-01-31T04:39:17.508Z,977.61
2018-01-31T04:40:17.493Z,977.60
2018-01-31T04:41:17.481Z,977.60
2018-01-31T04:42:17.469Z,977.60
2018-01-31T04:43:17.454Z,977.57
2018-01-31T04:44:17.432Z,977.54
2018-01-31T04:45:17.419Z,977.55
2018-01-31T04:46:17.403Z,977.57
2018-01-31T04:47:17.396Z,977.50
2018-01-31T04:48:17.373Z,977.52
2018-01-31T04:49:17.360Z,977.54
2018-01-31T04:50:17.346Z,977.51
2018-01-31T04:51:17.331Z,977.54
2018-01-31T04:52:17.316Z,977.59
2018-01-31T04:53:17.305Z,977.53
2018-01-31T04:54:17.287Z,977.50
2018-01-31T04:55:17.280Z,977.48
2018-01-31T04:56:17.257Z,977.46
2018-01-31T04:57:17.250Z,977.42
2018-01-31T04:58:17.232Z,977.40
2018-01-31T04:59:17.214Z,977.40
2018-01-31T05:00:17.208Z,977.42
2018-01-31T05:01:17.185Z,977.41
2018-01-31T05:02:17.170Z,977.38
2018-01-31T05:03:17.162Z,977.37
2018-01-31T05:04:17.141Z,977.37
2018-01-31T05:05:17.124Z,977.36
2018-01-31T05:06:17.110Z,977.33
2018-01-31T05:07:17.097Z,977.37
2018-01-31T05:08:17.082Z,977.35
2018-01-31T05:09:17.066Z,977.37
2018-01-31T05:10:17.054Z,977.37
2018-01-31T05:11:17.041Z,977.34
2018-01-31T05:12:17.023Z,977.39
2018-01-31T05:13:17.007Z,977.40
2018-01-31T05:14:16.996Z,977.36
2018-01-31T05:15:16.986Z,977.35
2018-01-31T05:16:16.969Z,977.30
2018-01-31T05:17:16.950Z,977.35
2018-01-31T05:18:16.936Z,977.30
2018-01-31T05:19:16.928Z,977.32
2018-01-31T05:20:16.908Z,977.26
2018-01-31T05:21:16.896Z,977.31
2018-01-31T05:22:16.878Z,977.33
2018-01-31T05:23:16.864Z,977.25
2018-01-31T05:24:16.848Z,977.29
2018-01-31T05:25:16.842Z,977.25
2018-01-31T05:26:16.821Z,977.23
2018-01-31T05:27:16.802Z,977.22
2018-01-31T05:28:16.788Z,977.21
2018-01-31T05:29:16.780Z,977.21
2018-01-31T05:30:16.764Z,977.20
2018-01-31T05:31:16.744Z,977.16
2018-01-31T05:32:16.728Z,977.11
2018-01-31T05:33:16.713Z,977.09
2018-01-31T05:34:16.708Z,977.06
2018-01-31T05:35:16.686Z,977.02
2018-01-31T05:36:16.672Z,976.99
2018-01-31T05:37:16.656Z,976.99
2018-01-31T05:38:16.646Z,977.00
2018-01-31T05:39:16.633Z,976.96
2018-01-31T05:40:16.618Z,976.95
2018-01-31T05:41:16.600Z,976.96
2018-01-31T05:42:16.593Z,976.88
2018-01-31T05:43:16.576Z,976.91
2018-01-31T05:44:16.566Z,976.88
2018-01-31T05:45:16.543Z,976.89
2018-01-31T05:46:16.529Z,976.87
2018-01-31T05:47:16.520Z,976.89
2018-01-31T05:48:16.497Z,976.86
2018-01-31T05:49:16.489Z,976.86
2018-01-31T05:50:16.471Z,976.82
2018-01-31T05:51:16.459Z,976.80
2018-01-31T05:52:16.439Z,976.80
2018-01-31T05:53:16.426Z,976.80
2018-01-31T05:54:16.413Z,976.80
2018-01-31T05:55:16.396Z,976.78
2018-01-31T05:56:16.380Z,976.78
2018-01-31T05:57:16.413Z,976.80
2018-01-31T05:58:16.360Z,976.77
2018-01-31T05:59:16.344Z,976.76
2018-01-31T06:00:16.330Z,976.74
2018-01-31T06:01:16.315Z,976.77
2018-01-31T06:02:16.296Z,976.74
2018-01-31T06:03:16.287Z,976.71
2018-01-31T06:04:16.266Z,976.72
2018-01-31T06:05:16.249Z,976.73
2018-01-31T06:06:16.232Z,976.71
2018-01-31T06:07:16.221Z,976.70
2018-01-31T06:08:16.210Z,976.74
2018-01-31T06:09:16.190Z,976.72
2018-01-31T06:10:16.176Z,976.68
2018-01-31T06:11:16.165Z,976.66
2018-01-31T06:12:16.143Z,976.68
2018-01-31T06:13:16.128Z,976.66
2018-01-31T06:14:16.121Z,976.67
2018-01-31T06:15:16.102Z,976.67
2018-01-31T06:16:16.084Z,976.65
2018-01-31T06:17:16.077Z,976.67
2018-01-31T06:18:16.054Z,976.61
2018-01-31T06:19:16.040Z,976.59
2018-01-31T06:20:16.029Z,976.53
2018-01-31T06:21:16.010Z,976.52
2018-01-31T06:22:15.996Z,976.58
2018-01-31T06:23:15.989Z,976.55
2018-01-31T06:24:15.967Z,976.55
2018-01-31T06:25:15.955Z,976.55
2018-01-31T06:26:15.944Z,976.57
2018-01-31T06:27:15.922Z,976.55
2018-01-31T06:28:15.913Z,976.56
2018-01-31T06:29:15.893Z,976.44
2018-01-31T06:30:15.876Z,976.45
2018-01-31T06:31:15.862Z,976.43
2018-01-31T06:32:15.848Z,976.39
2018-01-31T06:33:15.841Z,976.41
2018-01-31T06:34:15.827Z,976.40
2018-01-31T06:35:15.806Z,976.42
2018-01-31T06:36:15.789Z,976.40
2018-01-31T06:37:15.775Z,976.39
2018-01-31T06:38:15.760Z,976.37
2018-01-31T06:39:15.745Z,976.37
2018-01-31T06:40:15.730Z,976.34
2018-01-31T06:41:15.715Z,976.32
2018-01-31T06:42:15.708Z,976.33
2018-01-31T06:43:15.690Z,976.37
2018-01-31T06:44:15.671Z,976.34
2018-01-31T06:45:15.658Z,976.30
2018-01-31T06:46:15.642Z,976.32
2018-01-31T06:47:15.632Z,976.25
2018-01-31T06:48:15.616Z,976.30
2018-01-31T06:49:15.600Z,976.30
2018-01-31T06:50:15.591Z,976.31
2018-01-31T06:51:15.568Z,976.29
2018-01-31T06:52:15.556Z,976.28
2018-01-31T06:53:15.537Z,976.28
2018-01-31T06:54:15.523Z,976.22
2018-01-31T06:55:15.515Z,976.21
2018-01-31T06:56:15.493Z,976.18
2018-01-31T06:57:15.486Z,976.19
2018-01-31T06:58:15.468Z,976.23
2018-01-31T06:59:15.452Z,976.21
2018-01-31T07:00:15.442Z,976.18
2018-01-31T07:01:15.435Z,976.12
2018-01-31T07:02:15.407Z,976.08
2018-01-31T07:03:15.394Z,976.15
2018-01-31T07:04:15.380Z,976.09
2018-01-31T07:05:15.370Z,976.10
2018-01-31T07:06:15.356Z,976.04
2018-01-31T07:07:15.335Z,976.07
2018-01-31T07:08:15.328Z,976.07
2018-01-31T07:09:15.311Z,976.06
2018-01-31T07:10:15.293Z,976.05
2018-01-31T07:11:15.283Z,976.06
2018-01-31T07:12:15.264Z,976.05
2018-01-31T07:13:15.248Z,976.00
2018-01-31T07:14:15.242Z,976.06
2018-01-31T07:15:15.225Z,976.03
2018-01-31T07:16:15.205Z,976.03
2018-01-31T07:17:15.197Z,976.00
2018-01-31T07:18:15.177Z,976.03
2018-01-31T07:19:15.161Z,975.96
2018-01-31T07:20:15.153Z,976.01
2018-01-31T07:21:15.132Z,975.92
2018-01-31T07:22:15.118Z,975.90
2018-01-31T07:23:15.109Z,975.91
2018-01-31T07:24:15.088Z,975.83
2018-01-31T07:25:15.078Z,975.90
2018-01-31T07:26:15.066Z,975.87
2018-01-31T07:27:15.049Z,975.84
2018-01-31T07:28:15.040Z,975.82
2018-01-31T07:29:15.019Z,975.76
2018-01-31T07:30:15.010Z,975.76
2018-01-31T07:31:14.992Z,975.76
2018-01-31T07:32:14.981Z,975.78
2018-01-31T07:33:14.958Z,975.75
2018-01-31T07:34:14.945Z,975.68
2018-01-31T07:35:14.938Z,975.64
2018-01-31T07:36:14.916Z,975.64
2018-01-31T07:37:14.910Z,975.64
2018-01-31T07:38:14.888Z,975.64
2018-01-31T07:39:14.877Z,975.66
2018-01-31T07:40:14.857Z,975.67
2018-01-31T07:41:14.847Z,975.65
2018-01-31T07:42:14.836Z,975.68
2018-01-31T07:43:14.817Z,975.68
2018-01-31T07:44:14.802Z,975.66
2018-01-31T07:45:14.785Z,975.68
2018-01-31T07:46:14.775Z,975.69
2018-01-31T07:47:14.756Z,975.62
2018-01-31T07:48:14.741Z,975.59
2018-01-31T07:49:14.733Z,975.62
2018-01-31T07:50:14.716Z,975.59
2018-01-31T07:51:14.700Z,975.56
2018-01-31T07:52:14.685Z,975.50
2018-01-31T07:53:14.671Z,975.53
2018-01-31T07:54:14.663Z,975.49
2018-01-31T07:55:14.642Z,975.53
2018-01-31T07:56:14.629Z,975.50
2018-01-31T07:57:14.615Z,975.50
2018-01-31T07:58:14.601Z,975.49
2018-01-31T07:59:14.585Z,975.46
2018-01-31T08:00:14.572Z,975.50
2018-01-31T08:01:14.557Z,975.48
2018-01-31T08:02:14.546Z,975.46
2018-01-31T08:03:14.532Z,975.44
2018-01-31T08:04:14.514Z,975.48
2018-01-31T08:05:14.500Z,975.47
2018-01-31T08:06:14.486Z,975.44
2018-01-31T08:07:14.474Z,975.43
2018-01-31T08:08:14.465Z,975.41
2018-01-31T08:09:14.450Z,975.43
2018-01-31T08:10:14.432Z,975.39
2018-01-31T08:11:14.416Z,975.34
2018-01-31T08:12:14.404Z,975.31
2018-01-31T08:13:14.390Z,975.36
2018-01-31T08:14:14.374Z,975.31
2018-01-31T08:15:14.362Z,975.31
2018-01-31T08:16:14.347Z,975.31
2018-01-31T08:17:14.331Z,975.27
2018-01-31T08:18:14.326Z,975.29
2018-01-31T08:19:14.305Z,975.30
2018-01-31T08:20:14.291Z,975.24
2018-01-31T08:21:14.282Z,975.28
2018-01-31T08:22:14.262Z,975.24
2018-01-31T08:23:14.249Z,975.27
2018-01-31T08:24:14.242Z,975.22
2018-01-31T08:25:14.221Z,975.22
2018-01-31T08:26:14.209Z,975.18
2018-01-31T08:27:14.195Z,975.15
2018-01-31T08:28:14.178Z,975.10
2018-01-31T08:29:14.171Z,975.07
2018-01-31T08:30:14.152Z,975.07
2018-01-31T08:31:14.137Z,975.03
2018-01-31T08:32:14.132Z,975.02
2018-01-31T08:33:14.121Z,975.01
2018-01-31T08:34:14.099Z,975.02
2018-01-31T08:35:14.086Z,975.06
2018-01-31T08:36:14.068Z,974.97
2018-01-31T08:37:14.054Z,975.01
2018-01-31T08:38:14.046Z,974.95
2018-01-31T08:39:14.028Z,974.93
2018-01-31T08:40:14.021Z,974.93
2018-01-31T08:41:14.000Z,974.91
2018-01-31T08:42:13.987Z,974.83
2018-01-31T08:43:13.973Z,974.90
2018-01-31T08:44:13.959Z,974.85
2018-01-31T08:45:13.947Z,974.87
2018-01-31T08:46:13.932Z,974.85
2018-01-31T08:47:13.919Z,974.82
2018-01-31T08:48:13.905Z,974.82
2018-01-31T08:49:13.890Z,974.82
2018-01-31T08:50:13.877Z,974.82
2018-01-31T08:51:13.868Z,974.82
2018-01-31T08:52:13.849Z,974.80
2018-01-31T08:53:13.835Z,974.76
2018-01-31T08:54:13.822Z,974.82
2018-01-31T08:55:13.809Z,974.83
2018-01-31T08:56:13.794Z,974.81
2018-01-31T08:57:13.780Z,974.73
2018-01-31T08:58:13.769Z,974.75
2018-01-31T08:59:13.760Z,974.73
2018-01-31T09:00:13.746Z,974.73
2018-01-31T09:01:13.733Z,974.71
2018-01-31T09:02:13.718Z,974.66
2018-01-31T09:03:13.703Z,974.61
2018-01-31T09:04:13.685Z,974.66
2018-01-31T09:05:13.681Z,974.67
2018-01-31T09:06:13.676Z,974.65
2018-01-31T09:07:13.661Z,974.60
2018-01-31T09:08:13.644Z,974.64
2018-01-31T09:09:13.623Z,974.64
2018-01-31T09:10:13.604Z,974.59
2018-01-31T09:11:13.592Z,974.57
2018-01-31T09:12:13.582Z,974.60
2018-01-31T09:13:13.569Z,974.62
2018-01-31T09:14:13.550Z,974.58
2018-01-31T09:15:13.542Z,974.59
2018-01-31T09:16:13.524Z,974.57
2018-01-31T09:17:13.515Z,974.58
2018-01-31T09:18:13.495Z,974.55
2018-01-31T09:19:13.491Z,974.55
2018-01-31T09:20:13.475Z,974.55
2018-01-31T09:21:13.457Z,974.51
2018-01-31T09:22:13.447Z,974.53
2018-01-31T09:23:13.433Z,974.53
2018-01-31T09:24:13.416Z,974.52
2018-01-31T09:25:13.402Z,974.54
2018-01-31T09:26:13.389Z,974.56
2018-01-31T09:27:13.378Z,974.53
2018-01-31T09:28:13.364Z,974.50
2018-01-31T09:29:13.406Z,974.50
2018-01-31T09:30:13.342Z,974.44
2018-01-31T09:31:13.322Z,974.39
2018-01-31T09:32:13.314Z,974.43
2018-01-31T09:33:13.301Z,974.36
2018-01-31T09:34:13.293Z,974.39
2018-01-31T09:35:13.277Z,974.35
2018-01-31T09:36:13.257Z,974.36
2018-01-31T09:37:13.249Z,974.38
2018-01-31T09:38:13.235Z,974.33
2018-01-31T09:39:13.220Z,974.33
2018-01-31T09:40:13.207Z,974.33
2018-01-31T09:41:13.198Z,974.28
2018-01-31T09:42:13.183Z,974.27
2018-01-31T09:43:13.172Z,974.29
2018-01-31T09:44:13.157Z,974.32
2018-01-31T09:45:13.144Z,974.25
2018-01-31T09:46:13.133Z,974.28
2018-01-31T09:47:13.126Z,974.23
2018-01-31T09:48:13.109Z,974.21
2018-01-31T09:49:13.095Z,974.23
2018-01-31T09:50:13.091Z,974.20
2018-01-31T09:51:13.070Z,974.16
2018-01-31T09:52:13.057Z,974.09
2018-01-31T09:53:13.046Z,974.08
2018-01-31T09:54:13.039Z,974.01
2018-01-31T09:55:13.023Z,974.07
2018-01-31T09:56:13.010Z,974.10
2018-01-31T09:57:13.014Z,974.10
2018-01-31T09:58:12.987Z,974.11
2018-01-31T09:59:12.984Z,974.04
2018-01-31T10:00:12.968Z,974.06
2018-01-31T10:01:12.951Z,974.06
2018-01-31T10:02:12.939Z,974.03
2018-01-31T10:03:12.935Z,974.02
2018-01-31T10:04:12.916Z,974.07
2018-01-31T10:05:12.909Z,974.09
2018-01-31T10:06:12.894Z,974.08
2018-01-31T10:07:12.886Z,974.05
2018-01-31T10:08:12.871Z,974.04
2018-01-31T10:09:12.865Z,974.02
2018-01-31T10:10:12.849Z,973.97
2018-01-31T10:11:12.838Z,973.95
2018-01-31T10:12:12.824Z,973.95
2018-01-31T10:13:12.814Z,973.88
2018-01-31T10:14:12.805Z,973.86
2018-01-31T10:15:12.793Z,973.81
2018-01-31T10:16:12.776Z,973.77
2018-01-31T10:17:12.771Z,973.77
2018-01-31T10:18:12.758Z,973.76
2018-01-31T10:19:12.745Z,973.74
2018-01-31T10:20:12.731Z,973.73
2018-01-31T10:21:12.717Z,973.76
2018-01-31T10:22:12.715Z,973.80
2018-01-31T10:23:12.694Z,973.76
2018-01-31T10:24:12.683Z,973.78
2018-01-31T10:25:12.678Z,973.80
2018-01-31T10:26:12.661Z,973.81
2018-01-31T10:27:12.647Z,973.76
2018-01-31T10:28:12.635Z,973.73
2018-01-31T10:29:12.627Z,973.87
2018-01-31T10:30:12.621Z,973.74
2018-01-31T10:31:12.607Z,973.74
2018-01-31T10:32:12.591Z,973.75
2018-01-31T10:33:12.580Z,973.78
2018-01-31T10:34:12.567Z,973.79
2018-01-31T10:35:12.558Z,973.78
2018-01-31T10:36:12.544Z,973.75
2018-01-31T10:37:12.531Z,973.73
2018-01-31T10:38:12.530Z,973.64
2018-01-31T10:39:12.516Z,973.65
2018-01-31T10:40:12.498Z,973.55
2018-01-31T10:41:12.490Z,973.49
2018-01-31T10:42:12.478Z,973.48
2018-01-31T10:43:12.465Z,973.46
2018-01-31T10:44:12.457Z,973.46
2018-01-31T10:45:12.444Z,973.47
2018-01-31T10:46:12.432Z,973.43
2018-01-31T10:47:12.428Z,973.38
2018-01-31T10:48:12.409Z,973.30
2018-01-31T10:49:12.397Z,973.26
2018-01-31T10:50:12.388Z,973.27
2018-01-31T10:51:12.382Z,973.21
2018-01-31T10:52:12.365Z,973.15
2018-01-31T10:53:12.358Z,973.16
2018-01-31T10:57:28.864Z,973.07
2018-01-31T10:58:12.308Z,973.04
2018-01-31T10:59:12.296Z,973.09
2018-01-31T11:00:12.286Z,972.97
2018-01-31T11:01:12.269Z,972.90
2018-01-31T11:02:12.259Z,972.93
2018-01-31T11:03:12.248Z,972.87
2018-01-31T11:04:12.236Z,972.89
2018-01-31T11:05:12.227Z,972.89
2018-01-31T11:06:12.214Z,972.82
2018-01-31T11:07:12.207Z,972.75
2018-01-31T11:08:12.199Z,972.81
2018-01-31T11:09:12.189Z,972.82
2018-01-31T11:10:12.172Z,972.80
2018-01-31T11:11:12.170Z,972.72
2018-01-31T11:12:12.157Z,972.68
2018-01-31T11:13:12.142Z,972.70
2018-01-31T11:14:12.141Z,972.68
2018-01-31T11:15:12.124Z,972.72
2018-01-31T11:16:12.112Z,972.67
2018-01-31T11:17:12.105Z,972.63
2018-01-31T11:18:12.090Z,972.61
2018-01-31T11:19:12.085Z,972.62
2018-01-31T11:20:12.074Z,972.53
2018-01-31T11:21:12.059Z,972.57
2018-01-31T11:22:12.054Z,972.51
2018-01-31T11:23:12.039Z,972.61
2018-01-31T11:24:12.033Z,972.53
2018-01-31T11:25:12.023Z,972.50
2018-01-31T11:26:12.010Z,972.50
2018-01-31T11:27:12.016Z,972.49
2018-01-31T11:28:11.992Z,972.47
2018-01-31T11:29:11.975Z,972.46
2018-01-31T11:30:11.967Z,972.50
2018-01-31T11:31:11.958Z,972.43
2018-01-31T11:32:11.946Z,972.49
2018-01-31T11:33:11.948Z,972.41
2018-01-31T11:34:11.933Z,972.49
2018-01-31T11:35:11.921Z,972.36
2018-01-31T11:36:11.913Z,972.37
2018-01-31T11:37:11.901Z,972.39
2018-01-31T11:38:11.888Z,972.26
2018-01-31T11:39:11.874Z,972.24
2018-01-31T11:40:11.865Z,972.26
2018-01-31T11:41:11.856Z,972.17
2018-01-31T11:42:11.844Z,972.19
2018-01-31T11:43:11.841Z,972.12
2018-01-31T11:44:11.834Z,972.09
2018-01-31T11:45:11.820Z,972.09
2018-01-31T11:46:11.807Z,972.08
2018-01-31T11:47:11.803Z,972.01
2018-01-31T11:48:11.784Z,971.99
2018-01-31T11:49:11.774Z,971.97
2018-01-31T11:50:11.765Z,971.94
2018-01-31T11:51:11.760Z,971.97
2018-01-31T11:52:11.750Z,971.91
2018-01-31T11:53:11.734Z,971.96
2018-01-31T11:54:11.724Z,971.96
2018-01-31T11:55:11.714Z,971.94
2018-01-31T11:56:11.707Z,971.86
2018-01-31T11:57:11.699Z,971.85
2018-01-31T11:58:11.685Z,971.75
2018-01-31T11:59:11.675Z,971.77
2018-01-31T12:00:11.671Z,971.69
2018-01-31T12:01:11.655Z,971.71
2018-01-31T12:02:11.645Z,971.64
2018-01-31T12:03:11.635Z,971.70
2018-01-31T12:04:11.625Z,971.63
2018-01-31T12:05:11.616Z,971.65
2018-01-31T12:06:11.608Z,971.60
2018-01-31T12:07:11.594Z,971.62
2018-01-31T12:08:11.586Z,971.64
2018-01-31T12:09:11.576Z,971.54
2018-01-31T12:10:11.572Z,971.57
2018-01-31T12:11:11.562Z,971.53
2018-01-31T12:12:11.549Z,971.49
2018-01-31T12:13:11.541Z,971.47
2018-01-31T12:14:11.531Z,971.46
2018-01-31T12:15:11.522Z,971.38
2018-01-31T12:16:11.509Z,971.36
2018-01-31T12:17:11.503Z,971.35
2018-01-31T12:18:11.493Z,971.31
2018-01-31T12:19:11.481Z,971.34
2018-01-31T12:20:11.477Z,971.29
2018-01-31T12:21:11.462Z,971.28
2018-01-31T12:22:11.452Z,971.25
2018-01-31T12:23:11.443Z,971.27
2018-01-31T12:24:11.442Z,971.25
2018-01-31T12:25:11.424Z,971.23
2018-01-31T12:26:11.416Z,971.19
2018-01-31T12:27:11.404Z,971.13
2018-01-31T12:28:11.401Z,971.12
2018-01-31T12:29:11.391Z,971.05
2018-01-31T12:30:11.377Z,971.01
2018-01-31T12:31:11.365Z,970.97
2018-01-31T12:32:11.355Z,970.90
2018-01-31T12:33:11.345Z,970.89
2018-01-31T12:34:11.336Z,970.87
2018-01-31T12:35:11.328Z,970.88
2018-01-31T12:36:11.322Z,970.91
2018-01-31T12:37:11.307Z,970.75
2018-01-31T12:38:11.298Z,970.78
2018-01-31T12:39:11.287Z,970.76
2018-01-31T12:40:11.279Z,970.78
2018-01-31T12:41:11.273Z,970.75
2018-01-31T12:42:11.258Z,970.69
2018-01-31T12:43:11.247Z,970.68
2018-01-31T12:44:11.241Z,970.68
2018-01-31T12:45:11.234Z,970.69
2018-01-31T12:46:11.223Z,970.66
2018-01-31T12:47:11.210Z,970.67
2018-01-31T12:48:11.199Z,970.67
2018-01-31T12:49:11.198Z,970.72
2018-01-31T12:50:11.181Z,970.68
2018-01-31T12:51:11.170Z,970.63
2018-01-31T12:52:11.160Z,970.59
2018-01-31T12:53:11.155Z,970.54
2018-01-31T12:54:11.148Z,970.51
2018-01-31T12:55:11.131Z,970.46
2018-01-31T12:56:11.121Z,970.41
2018-01-31T12:57:11.112Z,970.43
2018-01-31T12:58:11.122Z,970.36
2018-01-31T12:59:11.099Z,970.32
2018-01-31T13:00:11.087Z,970.32
2018-01-31T13:01:11.074Z,970.24
2018-01-31T13:02:11.064Z,970.19
2018-01-31T13:03:11.058Z,970.21
2018-01-31T13:04:11.045Z,970.18
2018-01-31T13:05:11.040Z,970.12
2018-01-31T13:06:11.021Z,970.13
2018-01-31T13:07:11.012Z,970.10
2018-01-31T13:08:11.010Z,970.07
2018-01-31T13:09:11.044Z,970.02
2018-01-31T13:10:10.985Z,969.99
2018-01-31T13:11:10.979Z,969.99
2018-01-31T13:12:10.962Z,969.99
2018-01-31T13:13:10.963Z,969.87
2018-01-31T13:14:10.945Z,969.90
2018-01-31T13:15:10.936Z,969.77
2018-01-31T13:16:10.929Z,969.78
2018-01-31T13:17:10.915Z,969.75
2018-01-31T13:18:10.908Z,969.78
2018-01-31T13:19:10.903Z,969.80
2018-01-31T13:20:10.891Z,969.77
2018-01-31T13:21:10.873Z,969.81
2018-01-31T13:22:10.864Z,969.86
2018-01-31T13:23:10.852Z,969.87
2018-01-31T13:24:10.840Z,969.81
2018-01-31T13:25:10.837Z,969.74
2018-01-31T13:26:10.826Z,969.75
2018-01-31T13:27:10.819Z,969.78
2018-01-31T13:28:10.806Z,969.80
2018-01-31T13:29:10.796Z,969.79
2018-01-31T13:30:10.788Z,969.82
2018-01-31T13:31:10.772Z,969.75
2018-01-31T13:32:10.761Z,969.80
2018-01-31T13:33:10.751Z,969.77
2018-01-31T13:34:10.745Z,969.82
2018-01-31T13:35:10.731Z,969.77
2018-01-31T13:36:10.720Z,969.79
2018-01-31T13:37:10.712Z,969.75
2018-01-31T13:38:10.701Z,969.70
2018-01-31T13:39:10.691Z,969.70
2018-01-31T13:40:10.686Z,969.66
2018-01-31T13:41:10.674Z,969.64
2018-01-31T13:42:10.665Z,969.63
2018-01-31T13:43:10.653Z,969.57
2018-01-31T13:44:10.638Z,969.52
2018-01-31T13:45:10.630Z,969.56
2018-01-31T13:46:10.618Z,969.58
2018-01-31T13:47:10.614Z,969.47
2018-01-31T13:48:10.602Z,969.50
2018-01-31T13:49:10.593Z,969.45
2018-01-31T13:50:10.580Z,969.45
2018-01-31T13:51:10.566Z,969.39
2018-01-31T13:52:10.561Z,969.37
2018-01-31T13:53:10.548Z,969.35
2018-01-31T13:54:10.536Z,969.18
2018-01-31T13:55:10.531Z,969.20
2018-01-31T13:56:10.517Z,969.12
2018-01-31T13:57:10.510Z,969.16
2018-01-31T13:58:10.495Z,969.18
2018-01-31T13:59:10.484Z,969.16
2018-01-31T14:00:10.478Z,969.19
2018-01-31T14:01:10.464Z,969.16
2018-01-31T14:02:10.460Z,969.16
2018-01-31T14:03:10.444Z,969.14
2018-01-31T14:04:10.431Z,969.13
2018-01-31T14:05:10.428Z,969.17
2018-01-31T14:06:10.413Z,969.13
2018-01-31T14:07:10.409Z,969.02
2018-01-31T14:08:10.396Z,968.98
2018-01-31T14:09:10.381Z,968.99
2018-01-31T14:10:10.379Z,969.00
2018-01-31T14:11:10.359Z,968.93
2018-01-31T14:12:10.353Z,968.97
2018-01-31T14:13:10.338Z,968.94
2018-01-31T14:14:10.328Z,968.94
2018-01-31T14:15:10.316Z,968.95
2018-01-31T14:16:10.306Z,968.85
2018-01-31T14:17:10.295Z,968.77
2018-01-31T14:18:10.290Z,968.78
2018-01-31T14:19:10.273Z,968.75
2018-01-31T14:20:10.266Z,968.69
2018-01-31T14:21:10.255Z,968.71
2018-01-31T14:22:10.241Z,968.64